Kliftrans — PCDB — position and weather

sailwx.info

Track history (hours):
 
Tides and Currents Weather Stations Pressure Air Temp Water Temp Dewpoint Dewpoint Depression Visibility Wind Speed Wind Dir Waves Ship Positions

Kliftrans

Last reported at 2014-Jun-12 03:07 UTC. Time now 2014-Jul-30 09:11 UTC.
Position N 36°41' W 012°14'.
Warning: this ship's position is 48 days out of date.

Length 88 m; draft 3.4 m.

Type: Cargo ship. MMSI: 245132000.

Date/timePositionNaut miles runAvg speedWind from/ knotsBaromVisibWave heightAir tempDewpointWater temp
2014-Jun-12 03:07N 36°41' W 012°14'611.2
2014-Jun-12 02:33N 36°47' W 012°11'1411.3
2014-Jun-12 01:16N 37°01' W 012°04'811.1
2014-Jun-12 00:33N 37°08' W 012°01'1211.4
2014-Jun-11 23:30N 37°20' W 011°58'1111.3
2014-Jun-11 22:33N 37°30' W 011°54'1111.2
2014-Jun-11 21:33N 37°41' W 011°51'1111.0
2014-Jun-11 20:33N 37°52' W 011°47'1111.4
2014-Jun-11 19:33N 38°03' W 011°43'1111.2
2014-Jun-11 18:33N 38°13' W 011°39'1211.5
2014-Jun-11 17:33N 38°25' W 011°35'1211.3
2014-Jun-11 16:31N 38°36' W 011°32'1110.8
2014-Jun-11 15:32N 38°46' W 011°29'  
2014-Jun-08 05:18N 50°14' W 001°27'8 9.1
2014-Jun-08 04:27N 50°16' W 001°15'8 8.6
2014-Jun-08 03:29N 50°19' W 001°03'5310.5
2014-Jun-07 22:28N 50°35' E 000°16'1111.9
2014-Jun-07 21:33N 50°38' E 000°32'1111.2
2014-Jun-07 20:34N 50°44' E 000°47'1110.4
2014-Jun-07 19:32N 50°51' E 001°01'19 9.6
2014-Jun-07 17:30N 51°03' E 001°24'1010.8
2014-Jun-07 16:34N 51°10' E 001°37'2911.9
2014-Jun-07 14:09N 51°31' E 002°06'66 9.9
2014-Jun-07 07:33N 52°04' E 003°39'1010.3
2014-Jun-07 06:33N 52°02' E 003°56'1110.6
2014-Jun-07 05:34N 51°57' E 004°11'10 9.5
2014-Jun-07 04:33N 51°54' E 004°25'1 1.0
2014-Jun-07 03:33N 51°54' E 004°27'0 0.0
2014-Jun-07 02:33N 51°54' E 004°27'0 0.0
2014-Jun-07 01:33N 51°54' E 004°27'0 0.0
2014-Jun-07 00:34N 51°54' E 004°27'0 0.0
2014-Jun-06 23:33N 51°54' E 004°27'0 0.0
2014-Jun-06 22:33N 51°54' E 004°27'0 0.0
2014-Jun-06 21:33N 51°54' E 004°27'0 0.0
2014-Jun-06 20:33N 51°54' E 004°27'0 0.0
2014-Jun-06 19:34N 51°54' E 004°27'0 0.0
2014-Jun-06 18:33N 51°54' E 004°27'0 0.0
2014-Jun-06 17:33N 51°54' E 004°27'0 0.0
2014-Jun-06 16:33N 51°54' E 004°27'0 0.0
2014-Jun-06 15:33N 51°54' E 004°27'0 0.0
2014-Jun-06 14:34N 51°54' E 004°27'0 0.0
2014-Jun-06 13:33N 51°54' E 004°27'0 0.0
2014-Jun-06 12:33N 51°54' E 004°27'0 0.0
2014-Jun-06 11:33N 51°54' E 004°27'0 0.0
2014-Jun-06 10:33N 51°54' E 004°27'0 0.0
2014-Jun-06 09:34N 51°54' E 004°27'0 0.0
2014-Jun-06 08:33N 51°54' E 004°27'0 0.0
2014-Jun-06 07:33N 51°54' E 004°27'0 0.0
2014-Jun-06 06:33N 51°54' E 004°27'0 0.0
2014-Jun-06 05:33N 51°54' E 004°27'0 0.0
2014-Jun-06 04:33N 51°54' E 004°27'0 0.0
2014-Jun-06 03:33N 51°54' E 004°27'0 0.0
2014-Jun-06 02:34N 51°54' E 004°27'0 0.0
2014-Jun-06 01:33N 51°54' E 004°27'0 0.0
2014-Jun-06 00:33N 51°54' E 004°27'0 0.0
2014-Jun-05 23:33N 51°54' E 004°27'0 0.0
2014-Jun-05 22:33N 51°54' E 004°27'0 0.0
2014-Jun-05 21:33N 51°54' E 004°27'0 0.0
2014-Jun-05 20:33N 51°54' E 004°27'0 0.0
2014-Jun-05 19:33N 51°54' E 004°27'0 0.0
2014-Jun-05 18:33N 51°54' E 004°27'0 0.0
2014-Jun-05 17:33N 51°54' E 004°27'0 0.0
2014-Jun-05 16:33N 51°54' E 004°27'0 0.0
2014-Jun-05 15:33N 51°54' E 004°27'0 0.0
2014-Jun-05 14:33N 51°54' E 004°27'0 0.0
2014-Jun-05 13:33N 51°54' E 004°27'0 0.0
2014-Jun-05 12:33N 51°54' E 004°27'0 0.0
2014-Jun-05 11:33N 51°54' E 004°27'0 0.0
2014-Jun-05 09:33N 51°54' E 004°27'0 0.0
2014-Jun-05 08:33N 51°54' E 004°27'0 0.0
2014-Jun-05 07:33N 51°54' E 004°27'0 0.0
2014-Jun-05 06:33N 51°54' E 004°27'0 0.0
2014-Jun-05 05:33N 51°54' E 004°27'0 0.0
2014-Jun-05 04:33N 51°54' E 004°27'0 0.0
2014-Jun-05 03:33N 51°54' E 004°27'0 0.0
2014-Jun-05 02:33N 51°54' E 004°27'0 0.0
2014-Jun-05 01:33N 51°54' E 004°27'0 0.0
2014-Jun-05 00:33N 51°54' E 004°27'0 0.0
2014-Jun-04 23:33N 51°54' E 004°27'0 0.0
2014-Jun-04 22:33N 51°54' E 004°27'0 0.0
2014-Jun-04 21:33N 51°54' E 004°27'0 0.0
2014-Jun-04 20:33N 51°54' E 004°27'0 0.0
2014-Jun-04 19:33N 51°54' E 004°27'0 0.0
2014-Jun-04 18:32N 51°54' E 004°27'1 1.3
2014-Jun-04 17:33N 51°54' E 004°25'1210.6
2014-Jun-04 16:26N 51°59' E 004°07'1010.4
2014-Jun-04 15:30N 51°59' E 003°51'71 6.4
2014-Jun-04 04:31N 52°38' E 002°15'1010.7
2014-Jun-04 03:33N 52°44' E 002°00'1111.5
2014-Jun-04 02:33N 52°49' E 001°43'1212.0
2014-Jun-04 01:33N 52°55' E 001°27'1312.6
2014-Jun-04 00:31N 53°02' E 001°08'  
Track history (hours):
 
Tides and Currents Weather Stations Pressure Air Temp Water Temp Dewpoint Dewpoint Depression Visibility Wind Speed Wind Dir Waves Ship Positions

Kliftrans

Last reported at 2014-Jun-12 03:07 UTC. Time now 2014-Jul-30 09:11 UTC.
Position N 36°41' W 012°14'.
Warning: this ship's position is 48 days out of date.

Length 88 m; draft 3.4 m.

Type: Cargo ship. MMSI: 245132000.

Date/timePositionNaut miles runAvg speedWind from/ knotsBaromVisibWave heightAir tempDewpointWater temp
2014-Jun-12 03:07N 36°41' W 012°14'611.2
2014-Jun-12 02:33N 36°47' W 012°11'1411.3
2014-Jun-12 01:16N 37°01' W 012°04'811.1
2014-Jun-12 00:33N 37°08' W 012°01'1211.4
2014-Jun-11 23:30N 37°20' W 011°58'1111.3
2014-Jun-11 22:33N 37°30' W 011°54'1111.2
2014-Jun-11 21:33N 37°41' W 011°51'1111.0
2014-Jun-11 20:33N 37°52' W 011°47'1111.4
2014-Jun-11 19:33N 38°03' W 011°43'1111.2
2014-Jun-11 18:33N 38°13' W 011°39'1211.5
2014-Jun-11 17:33N 38°25' W 011°35'1211.3
2014-Jun-11 16:31N 38°36' W 011°32'1110.8
2014-Jun-11 15:32N 38°46' W 011°29'  
2014-Jun-08 05:18N 50°14' W 001°27'8 9.1
2014-Jun-08 04:27N 50°16' W 001°15'8 8.6
2014-Jun-08 03:29N 50°19' W 001°03'5310.5
2014-Jun-07 22:28N 50°35' E 000°16'1111.9
2014-Jun-07 21:33N 50°38' E 000°32'1111.2
2014-Jun-07 20:34N 50°44' E 000°47'1110.4
2014-Jun-07 19:32N 50°51' E 001°01'19 9.6
2014-Jun-07 17:30N 51°03' E 001°24'1010.8
2014-Jun-07 16:34N 51°10' E 001°37'2911.9
2014-Jun-07 14:09N 51°31' E 002°06'66 9.9
2014-Jun-07 07:33N 52°04' E 003°39'1010.3
2014-Jun-07 06:33N 52°02' E 003°56'1110.6
2014-Jun-07 05:34N 51°57' E 004°11'10 9.5
2014-Jun-07 04:33N 51°54' E 004°25'1 1.0
2014-Jun-07 03:33N 51°54' E 004°27'0 0.0
2014-Jun-07 02:33N 51°54' E 004°27'0 0.0
2014-Jun-07 01:33N 51°54' E 004°27'0 0.0
2014-Jun-07 00:34N 51°54' E 004°27'0 0.0
2014-Jun-06 23:33N 51°54' E 004°27'0 0.0
2014-Jun-06 22:33N 51°54' E 004°27'0 0.0
2014-Jun-06 21:33N 51°54' E 004°27'0 0.0
2014-Jun-06 20:33N 51°54' E 004°27'0 0.0
2014-Jun-06 19:34N 51°54' E 004°27'0 0.0
2014-Jun-06 18:33N 51°54' E 004°27'0 0.0
2014-Jun-06 17:33N 51°54' E 004°27'0 0.0
2014-Jun-06 16:33N 51°54' E 004°27'0 0.0
2014-Jun-06 15:33N 51°54' E 004°27'0 0.0
2014-Jun-06 14:34N 51°54' E 004°27'0 0.0
2014-Jun-06 13:33N 51°54' E 004°27'0 0.0
2014-Jun-06 12:33N 51°54' E 004°27'0 0.0
2014-Jun-06 11:33N 51°54' E 004°27'0 0.0
2014-Jun-06 10:33N 51°54' E 004°27'0 0.0
2014-Jun-06 09:34N 51°54' E 004°27'0 0.0
2014-Jun-06 08:33N 51°54' E 004°27'0 0.0
2014-Jun-06 07:33N 51°54' E 004°27'0 0.0
2014-Jun-06 06:33N 51°54' E 004°27'0 0.0
2014-Jun-06 05:33N 51°54' E 004°27'0 0.0
2014-Jun-06 04:33N 51°54' E 004°27'0 0.0
2014-Jun-06 03:33N 51°54' E 004°27'0 0.0
2014-Jun-06 02:34N 51°54' E 004°27'0 0.0
2014-Jun-06 01:33N 51°54' E 004°27'0 0.0
2014-Jun-06 00:33N 51°54' E 004°27'0 0.0
2014-Jun-05 23:33N 51°54' E 004°27'0 0.0
2014-Jun-05 22:33N 51°54' E 004°27'0 0.0
2014-Jun-05 21:33N 51°54' E 004°27'0 0.0
2014-Jun-05 20:33N 51°54' E 004°27'0 0.0
2014-Jun-05 19:33N 51°54' E 004°27'0 0.0
2014-Jun-05 18:33N 51°54' E 004°27'0 0.0
2014-Jun-05 17:33N 51°54' E 004°27'0 0.0
2014-Jun-05 16:33N 51°54' E 004°27'0 0.0
2014-Jun-05 15:33N 51°54' E 004°27'0 0.0
2014-Jun-05 14:33N 51°54' E 004°27'0 0.0
2014-Jun-05 13:33N 51°54' E 004°27'0 0.0
2014-Jun-05 12:33N 51°54' E 004°27'0 0.0
2014-Jun-05 11:33N 51°54' E 004°27'0 0.0
2014-Jun-05 09:33N 51°54' E 004°27'0 0.0
2014-Jun-05 08:33N 51°54' E 004°27'0 0.0
2014-Jun-05 07:33N 51°54' E 004°27'0 0.0
2014-Jun-05 06:33N 51°54' E 004°27'0 0.0
2014-Jun-05 05:33N 51°54' E 004°27'0 0.0
2014-Jun-05 04:33N 51°54' E 004°27'0 0.0
2014-Jun-05 03:33N 51°54' E 004°27'0 0.0
2014-Jun-05 02:33N 51°54' E 004°27'0 0.0
2014-Jun-05 01:33N 51°54' E 004°27'0 0.0
2014-Jun-05 00:33N 51°54' E 004°27'0 0.0
2014-Jun-04 23:33N 51°54' E 004°27'0 0.0
2014-Jun-04 22:33N 51°54' E 004°27'0 0.0
2014-Jun-04 21:33N 51°54' E 004°27'0 0.0
2014-Jun-04 20:33N 51°54' E 004°27'0 0.0
2014-Jun-04 19:33N 51°54' E 004°27'0 0.0
2014-Jun-04 18:32N 51°54' E 004°27'1 1.3
2014-Jun-04 17:33N 51°54' E 004°25'1210.6
2014-Jun-04 16:26N 51°59' E 004°07'1010.4
2014-Jun-04 15:30N 51°59' E 003°51'71 6.4
2014-Jun-04 04:31N 52°38' E 002°15'1010.7
2014-Jun-04 03:33N 52°44' E 002°00'1111.5
2014-Jun-04 02:33N 52°49' E 001°43'1212.0
2014-Jun-04 01:33N 52°55' E 001°27'1312.6
2014-Jun-04 00:31N 53°02' E 001°08'  

Dump ship's entire track history